Time;durP1;ratioP1;P1;durP2;ratioP2;P2;SDS_P1;SDS_P2;PMS_P1;PMS_P2;Temp;Humidity;BMP_temperature;BMP_pressure;BME280_temperature;BME280_humidity;BME280_pressure;Samples;Min_cycle;Max_cycle;Signal;HPM_P1;HPM_P2
2022/11/16 00:01:31;;;;;;;35.27;16.90;;;8.40;1.00;;;;;;5055342;28;20163;-74
2022/11/16 00:03:58;;;;;;;34.67;16.87;;;8.30;1.00;;;;;;5055002;28;20566;-74
2022/11/16 00:06:25;;;;;;;29.53;15.00;;;8.30;1.00;;;;;;5055799;28;20507;-74
2022/11/16 00:11:40;;;;;;;27.77;15.73;;;8.20;1.00;;;;;;5055761;28;20471;-74
2022/11/16 00:14:06;;;;;;;30.07;17.87;;;8.20;1.00;;;;;;5053631;28;20409;-77
2022/11/16 00:16:32;;;;;;;29.07;17.27;;;8.20;1.00;;;;;;5055610;28;20436;-73
2022/11/16 00:19:00;;;;;;;33.17;15.60;;;8.30;1.00;;;;;;5055661;28;20402;-77
2022/11/16 00:21:26;;;;;;;33.17;16.90;;;8.20;1.00;;;;;;5056045;28;20408;-76
2022/11/16 00:23:52;;;;;;;33.17;16.20;;;8.30;1.00;;;;;;5054843;28;20450;-74
2022/11/16 00:26:19;;;;;;;42.77;19.60;;;8.20;1.00;;;;;;5055644;28;20824;-74
2022/11/16 00:28:45;;;;;;;36.83;17.20;;;8.30;1.00;;;;;;5054175;28;20509;-75
2022/11/16 00:31:10;;;;;;;35.40;15.97;;;8.30;1.00;;;;;;5055178;28;20860;-75
2022/11/16 00:33:37;;;;;;;31.80;17.80;;;8.30;1.00;;;;;;5055066;28;20172;-79
2022/11/16 00:36:05;;;;;;;29.37;18.00;;;8.30;1.00;;;;;;5054119;28;20200;-75
2022/11/16 00:38:31;;;;;;;53.60;20.23;;;8.30;1.00;;;;;;5055148;28;20417;-77
2022/11/16 00:40:56;;;;;;;37.83;18.40;;;8.20;1.00;;;;;;5055268;28;20805;-77
2022/11/16 00:43:22;;;;;;;44.70;18.67;;;8.30;1.00;;;;;;5055145;28;20586;-75
2022/11/16 00:45:48;;;;;;;56.17;19.00;;;8.30;1.00;;;;;;5054343;28;20555;-75
2022/11/16 00:48:14;;;;;;;42.47;18.97;;;8.30;1.00;;;;;;5054896;28;20524;-77
2022/11/16 00:50:40;;;;;;;39.47;17.13;;;8.40;1.00;;;;;;5055042;28;20387;-74
2022/11/16 00:53:06;;;;;;;38.83;17.30;;;8.30;1.00;;;;;;5055057;28;20168;-74
2022/11/16 00:55:33;;;;;;;36.20;18.70;;;8.40;1.00;;;;;;5054138;28;20543;-77
2022/11/16 00:57:58;;;;;;;38.90;17.57;;;8.40;1.00;;;;;;5054490;28;20409;-73
2022/11/16 01:00:24;;;;;;;38.33;18.47;;;8.40;1.00;;;;;;5054603;28;20402;-76
2022/11/16 01:02:53;;;;;;;37.40;18.60;;;8.40;1.00;;;;;;5054805;28;20202;-74
2022/11/16 01:05:19;;;;;;;33.53;19.53;;;8.40;1.00;;;;;;5053785;28;20182;-74
2022/11/16 01:07:45;;;;;;;37.00;17.70;;;8.40;1.00;;;;;;5054421;28;20400;-75
2022/11/16 01:10:13;;;;;;;41.93;18.43;;;8.40;1.00;;;;;;5054863;28;20485;-77
2022/11/16 01:12:39;;;;;;;50.30;18.70;;;8.40;1.00;;;;;;5054745;28;20433;-74
2022/11/16 01:15:10;;;;;;;43.40;18.57;;;8.40;1.00;;;;;;5052601;28;20426;-74
2022/11/16 01:17:37;;;;;;;34.80;17.37;;;8.40;1.00;;;;;;5053521;28;20433;-77
2022/11/16 01:20:06;;;;;;;37.43;18.60;;;8.40;1.00;;;;;;5054663;28;20572;-76
2022/11/16 01:22:36;;;;;;;43.70;19.27;;;8.40;1.00;;;;;;5053176;28;20458;-76
2022/11/16 01:25:02;;;;;;;32.90;18.00;;;8.40;1.00;;;;;;5051965;28;20462;-76
2022/11/16 01:27:28;;;;;;;38.73;19.17;;;8.40;1.00;;;;;;5053961;28;20429;-73
2022/11/16 01:29:53;;;;;;;34.00;18.47;;;8.40;1.00;;;;;;5054344;28;20408;-74
2022/11/16 01:32:19;;;;;;;36.10;17.60;;;8.30;1.00;;;;;;5054355;28;20428;-77
2022/11/16 01:34:45;;;;;;;34.00;16.27;;;8.30;1.00;;;;;;5053537;28;20171;-73
2022/11/16 01:37:11;;;;;;;38.50;18.57;;;8.30;1.00;;;;;;5069563;28;20431;-77
2022/11/16 01:39:38;;;;;;;39.60;16.23;;;8.20;1.00;;;;;;5054234;28;20410;-76
2022/11/16 01:42:04;;;;;;;32.03;16.30;;;8.30;1.00;;;;;;5052803;28;20177;-77
2022/11/16 01:44:30;;;;;;;33.03;17.00;;;8.30;1.00;;;;;;5053134;28;20405;-74
2022/11/16 01:46:56;;;;;;;31.37;15.33;;;8.30;1.00;;;;;;5053744;28;20766;-74
2022/11/16 01:49:26;;;;;;;28.23;15.73;;;8.30;1.00;;;;;;5054007;28;20165;-74
2022/11/16 01:51:56;;;;;;;31.47;15.87;;;8.30;1.00;;;;;;5054305;28;20397;-77
2022/11/16 01:54:22;;;;;;;28.33;14.93;;;8.30;1.00;;;;;;5051948;28;20415;-77
2022/11/16 01:56:50;;;;;;;27.97;15.53;;;8.30;1.00;;;;;;5053803;28;20433;-74
2022/11/16 01:59:16;;;;;;;35.67;15.23;;;8.30;1.00;;;;;;5053904;28;20409;-76
2022/11/16 02:01:42;;;;;;;29.10;15.17;;;8.30;1.00;;;;;;5053777;28;20429;-77
2022/11/16 02:04:12;;;;;;;27.13;15.87;;;8.20;1.00;;;;;;5052455;28;21004;-74
2022/11/16 02:07:17;;;;;;;24.90;14.53;;;8.30;1.00;;;;;;5053780;28;20491;-77
2022/11/16 02:09:54;;;;;;;28.03;13.33;;;8.40;1.00;;;;;;5022320;28;20894;-74
2022/11/16 02:12:38;;;;;;;26.23;15.00;;;8.30;1.00;;;;;;5053773;28;20500;-76
2022/11/16 02:15:12;;;;;;;26.10;14.80;;;8.30;1.00;;;;;;5052725;28;20410;-74
2022/11/16 02:17:57;;;;;;;28.77;14.90;;;8.20;1.00;;;;;;5053283;28;20424;-76
2022/11/16 02:21:00;;;;;;;27.50;14.27;;;8.30;1.00;;;;;;5053592;28;20398;-74
2022/11/16 02:24:04;;;;;;;27.53;14.40;;;8.20;1.00;;;;;;5051589;28;20873;-75
2022/11/16 02:26:55;;;;;;;27.33;15.50;;;8.20;1.00;;;;;;5053512;28;21093;-76
2022/11/16 02:29:42;;;;;;;30.17;13.67;;;8.20;1.00;;;;;;5053632;28;20399;-77
2022/11/16 02:32:30;;;;;;;24.87;12.77;;;8.30;1.00;;;;;;5053530;28;20394;-74
2022/11/16 02:35:16;;;;;;;24.20;13.70;;;8.20;1.00;;;;;;5052420;28;20395;-74
2022/11/16 02:37:49;;;;;;;25.73;13.70;;;8.30;1.00;;;;;;5053129;28;20443;-75
2022/11/16 02:40:19;;;;;;;29.33;14.40;;;8.20;1.00;;;;;;5052827;28;20406;-75
2022/11/16 02:42:53;;;;;;;23.87;13.13;;;8.20;1.00;;;;;;5053461;28;20464;-74
2022/11/16 02:45:26;;;;;;;24.77;13.20;;;8.20;1.00;;;;;;5052277;28;20393;-75
2022/11/16 02:47:57;;;;;;;23.57;13.50;;;8.20;1.00;;;;;;5053272;28;20485;-75
2022/11/16 02:50:23;;;;;;;21.30;13.10;;;8.30;1.00;;;;;;5053386;28;20390;-76
2022/11/16 02:52:49;;;;;;;26.50;12.90;;;8.30;1.00;;;;;;5053309;28;20406;-76
2022/11/16 02:55:15;;;;;;;23.00;13.33;;;8.30;1.00;;;;;;5052345;28;20395;-75
2022/11/16 02:58:00;;;;;;;26.40;14.10;;;8.20;1.00;;;;;;5052799;28;20187;-76
2022/11/16 03:00:42;;;;;;;23.23;14.53;;;8.20;1.00;;;;;;5053298;28;20246;-77
2022/11/16 03:03:37;;;;;;;22.63;13.23;;;8.20;1.00;;;;;;5053121;28;20450;-74
2022/11/16 03:06:12;;;;;;;24.30;13.60;;;8.20;1.00;;;;;;5049723;28;20961;-75
2022/11/16 03:08:42;;;;;;;24.53;13.10;;;8.30;1.00;;;;;;5053185;28;20408;-77
2022/11/16 03:13:58;;;;;;;24.37;13.40;;;8.30;1.00;;;;;;5051974;28;20418;-75
2022/11/16 03:16:31;;;;;;;23.67;13.40;;;8.30;1.00;;;;;;5052777;28;20424;-76
2022/11/16 03:19:01;;;;;;;23.93;13.90;;;8.30;1.00;;;;;;5052840;28;20445;-74
2022/11/16 03:21:31;;;;;;;21.80;13.67;;;8.30;1.00;;;;;;5053356;28;20890;-76
2022/11/16 03:23:57;;;;;;;25.33;12.43;;;8.20;1.00;;;;;;5055861;28;20544;-75
2022/11/16 03:26:30;;;;;;;27.20;12.63;;;8.30;1.00;;;;;;5056554;28;20977;-74
2022/11/16 03:29:07;;;;;;;24.50;13.70;;;8.30;1.00;;;;;;5055783;28;20177;-76
2022/11/16 03:31:48;;;;;;;19.70;12.00;;;8.20;1.00;;;;;;5056992;28;20409;-77
2022/11/16 03:34:18;;;;;;;27.90;12.70;;;8.20;1.00;;;;;;5055343;28;20971;-76
2022/11/16 03:36:47;;;;;;;21.00;11.50;;;8.20;1.00;;;;;;5056498;28;20435;-76
2022/11/16 03:39:22;;;;;;;23.03;11.70;;;8.20;1.00;;;;;;5056815;28;20430;-74
2022/11/16 03:41:49;;;;;;;19.83;13.57;;;8.20;1.00;;;;;;5056629;28;20393;-76
2022/11/16 03:44:18;;;;;;;23.50;12.87;;;8.10;1.00;;;;;;5055451;28;21004;-75
2022/11/16 03:46:45;;;;;;;22.60;13.53;;;8.10;1.00;;;;;;5056488;28;20436;-74
2022/11/16 03:49:11;;;;;;;23.17;12.70;;;8.10;1.00;;;;;;5056050;28;20805;-76
2022/11/16 03:51:37;;;;;;;21.70;13.10;;;8.00;1.00;;;;;;5056535;28;20440;-77
2022/11/16 03:54:04;;;;;;;22.20;14.00;;;8.10;1.00;;;;;;5055378;28;20398;-75
2022/11/16 03:56:29;;;;;;;18.70;13.00;;;8.10;1.00;;;;;;5056124;28;20432;-75
2022/11/16 03:58:55;;;;;;;21.23;11.93;;;8.20;1.00;;;;;;5056250;28;20401;-74
2022/11/16 04:01:21;;;;;;;24.60;11.83;;;8.20;1.00;;;;;;5056198;28;20173;-74
2022/11/16 04:03:47;;;;;;;23.03;12.60;;;8.10;1.00;;;;;;5055079;28;20216;-76
2022/11/16 04:25:39;;;;;;;28.30;13.23;;;8.30;1.00;;;;;;5054763;28;20411;-77
2022/11/16 04:28:15;;;;;;;24.13;12.33;;;8.30;1.00;;;;;;5055604;28;20744;-73
2022/11/16 04:39:07;;;;;;;22.63;11.93;;;8.30;1.00;;;;;;5055756;28;20455;-77
2022/11/16 04:44:18;;;;;;;18.83;10.97;;;8.20;1.00;;;;;;5054423;28;20809;-76
2022/11/16 04:49:28;;;;;;;20.97;11.53;;;8.20;1.00;;;;;;5055620;28;21000;-74
2022/11/16 04:51:54;;;;;;;23.10;12.63;;;8.20;1.00;;;;;;5055422;28;20395;-76
2022/11/16 04:54:20;;;;;;;24.73;13.53;;;8.20;1.00;;;;;;5054373;28;20247;-74
2022/11/16 04:56:46;;;;;;;24.80;16.20;;;8.20;1.00;;;;;;5055017;28;20187;-76
2022/11/16 04:59:12;;;;;;;22.70;13.37;;;8.20;1.00;;;;;;5054594;28;20217;-76
2022/11/16 05:04:22;;;;;;;22.90;13.97;;;8.30;1.00;;;;;;5054111;28;20416;-77
2022/11/16 05:06:48;;;;;;;23.57;15.23;;;8.20;1.00;;;;;;5054644;28;20516;-75
2022/11/16 05:09:14;;;;;;;21.10;14.73;;;8.20;1.00;;;;;;5054757;28;20179;-74
2022/11/16 05:11:40;;;;;;;30.73;14.67;;;8.20;1.00;;;;;;5053747;28;20189;-74
2022/11/16 05:14:07;;;;;;;24.17;14.07;;;8.10;1.00;;;;;;5053973;28;20492;-77
2022/11/16 05:16:33;;;;;;;26.33;14.60;;;8.20;1.00;;;;;;5052916;28;20198;-77
2022/11/16 05:21:42;;;;;;;27.93;14.73;;;8.20;1.00;;;;;;5054712;28;20187;-75
2022/11/16 05:26:52;;;;;;;27.90;14.37;;;8.20;1.00;;;;;;5055301;28;20193;-76
2022/11/16 05:29:18;;;;;;;26.60;14.83;;;8.20;1.00;;;;;;5054316;28;20509;-74
2022/11/16 05:31:44;;;;;;;28.47;16.00;;;8.10;1.00;;;;;;5054285;28;20219;-77
2022/11/16 05:34:11;;;;;;;25.53;14.00;;;8.10;1.00;;;;;;5053302;28;20175;-77
2022/11/16 05:36:36;;;;;;;29.90;16.00;;;8.10;1.00;;;;;;5069528;28;20210;-77
2022/11/16 05:39:03;;;;;;;22.27;14.60;;;8.10;1.00;;;;;;5054322;28;20405;-76
2022/11/16 05:41:29;;;;;;;23.90;14.40;;;8.00;1.00;;;;;;5054415;28;20175;-77
2022/11/16 05:43:55;;;;;;;31.37;15.10;;;8.00;1.00;;;;;;5053463;28;20460;-78
2022/11/16 05:46:22;;;;;;;26.47;15.80;;;8.00;1.00;;;;;;5054042;28;20909;-77
2022/11/16 05:48:47;;;;;;;23.70;13.93;;;8.10;1.00;;;;;;5053926;28;20191;-75
2022/11/16 05:51:13;;;;;;;23.80;14.60;;;8.00;1.00;;;;;;5053957;28;20491;-74
2022/11/16 05:53:39;;;;;;;30.97;15.30;;;8.10;1.00;;;;;;5053144;28;20171;-77
2022/11/16 05:56:05;;;;;;;25.77;15.07;;;8.00;1.00;;;;;;5052360;28;20528;-77
2022/11/16 05:58:31;;;;;;;25.07;14.83;;;8.00;1.00;;;;;;5054197;28;20276;-74
2022/11/16 06:00:57;;;;;;;25.10;14.57;;;8.00;1.00;;;;;;5053982;28;20488;-74
2022/11/16 06:03:23;;;;;;;28.27;16.50;;;8.00;1.00;;;;;;5053555;28;20234;-78
2022/11/16 06:05:52;;;;;;;19.73;11.90;;;8.00;1.00;;;;;;5052989;28;20954;-76
2022/11/16 06:08:18;;;;;;;25.80;14.17;;;8.00;1.00;;;;;;5053439;28;20169;-74
2022/11/16 06:10:44;;;;;;;23.63;14.63;;;8.00;1.00;;;;;;5053770;28;20412;-76
2022/11/16 06:13:09;;;;;;;25.20;14.30;;;8.00;1.00;;;;;;5053684;28;21574;-76
2022/11/16 06:15:39;;;;;;;29.20;15.23;;;8.00;1.00;;;;;;5052664;28;20171;-76
2022/11/16 06:18:06;;;;;;;25.07;14.60;;;8.00;1.00;;;;;;5053572;28;20170;-77
2022/11/16 06:20:31;;;;;;;30.00;16.40;;;8.00;1.00;;;;;;5053639;28;20420;-73
2022/11/16 06:22:57;;;;;;;29.33;16.30;;;8.00;1.00;;;;;;5053497;28;20445;-74
2022/11/16 06:25:23;;;;;;;24.63;15.03;;;8.00;1.00;;;;;;5051987;28;20417;-77
2022/11/16 06:27:49;;;;;;;25.60;15.60;;;8.00;1.00;;;;;;5053446;28;20242;-77
2022/11/16 06:30:15;;;;;;;26.23;14.10;;;8.00;1.00;;;;;;5052135;28;20267;-77
2022/11/16 06:32:40;;;;;;;25.43;14.77;;;8.00;1.00;;;;;;5053013;28;20183;-75
2022/11/16 06:35:07;;;;;;;27.23;16.57;;;7.90;1.00;;;;;;5052576;28;20409;-75
2022/11/16 06:37:32;;;;;;;29.17;16.73;;;7.90;1.00;;;;;;5053237;28;20679;-78
2022/11/16 06:39:58;;;;;;;27.80;15.47;;;8.00;1.00;;;;;;5053264;28;20425;-78
2022/11/16 06:42:24;;;;;;;29.37;15.70;;;7.90;1.00;;;;;;5053250;28;20551;-74
2022/11/16 06:44:50;;;;;;;32.70;15.87;;;7.90;1.00;;;;;;5052168;28;20174;-76
2022/11/16 06:47:16;;;;;;;39.20;18.60;;;7.90;1.00;;;;;;5053285;28;20191;-74
2022/11/16 06:49:42;;;;;;;37.27;18.70;;;7.90;1.00;;;;;;5052841;28;20432;-75
2022/11/16 06:52:07;;;;;;;27.77;16.87;;;7.90;1.00;;;;;;5052064;28;20175;-77
2022/11/16 06:54:34;;;;;;;37.90;17.83;;;7.90;1.00;;;;;;5052177;28;20944;-76
2022/11/16 06:57:00;;;;;;;33.13;16.67;;;7.90;1.00;;;;;;5054612;28;20225;-74
2022/11/16 06:59:25;;;;;;;33.10;17.70;;;7.90;1.00;;;;;;5056896;28;20402;-75
2022/11/16 07:01:51;;;;;;;33.83;16.63;;;7.90;1.00;;;;;;5057090;28;20175;-74
2022/11/16 07:04:17;;;;;;;30.63;16.27;;;7.90;1.00;;;;;;5056195;28;20683;-72
2022/11/16 07:06:43;;;;;;;35.73;15.77;;;7.90;1.00;;;;;;5057074;28;20225;-73
2022/11/16 07:09:08;;;;;;;33.80;15.83;;;7.90;1.00;;;;;;5057127;28;20246;-73
2022/11/16 07:11:35;;;;;;;38.73;17.47;;;7.90;1.00;;;;;;5057101;28;20191;-76
2022/11/16 07:14:02;;;;;;;34.10;16.77;;;8.00;1.00;;;;;;5054982;28;20261;-73
2022/11/16 07:16:27;;;;;;;30.63;17.23;;;8.00;1.00;;;;;;5057303;28;20511;-74
2022/11/16 07:18:56;;;;;;;33.90;16.10;;;8.00;1.00;;;;;;5056725;28;20443;-73
2022/11/16 07:21:22;;;;;;;32.30;17.20;;;7.90;1.00;;;;;;5057040;28;20416;-77
2022/11/16 07:23:54;;;;;;;31.63;17.50;;;8.00;1.00;;;;;;5055815;28;20457;-74
2022/11/16 07:26:20;;;;;;;30.70;15.67;;;8.00;1.00;;;;;;5055451;28;20260;-78
2022/11/16 07:28:45;;;;;;;31.90;17.10;;;8.10;1.00;;;;;;5072435;28;20417;-73
2022/11/16 07:31:13;;;;;;;37.40;16.40;;;8.00;1.00;;;;;;5056793;28;20921;-78
2022/11/16 07:33:39;;;;;;;29.63;16.17;;;8.10;1.00;;;;;;5055694;28;20178;-78
2022/11/16 07:36:15;;;;;;;35.80;17.57;;;8.10;1.00;;;;;;5055972;28;20417;-74
2022/11/16 07:38:41;;;;;;;34.40;16.27;;;8.10;1.00;;;;;;5056636;28;20463;-73
2022/11/16 07:41:10;;;;;;;28.53;14.90;;;8.10;1.00;;;;;;5056737;28;20967;-76
2022/11/16 07:43:36;;;;;;;35.10;15.47;;;8.10;1.00;;;;;;5056118;28;20453;-79
2022/11/16 07:46:07;;;;;;;28.53;15.40;;;8.10;1.00;;;;;;5055995;28;20426;-77
2022/11/16 07:48:33;;;;;;;26.20;14.80;;;8.10;1.00;;;;;;5056501;28;20409;-74
2022/11/16 07:51:04;;;;;;;32.37;15.80;;;8.10;1.00;;;;;;5056352;28;20865;-77
2022/11/16 07:53:30;;;;;;;29.20;14.70;;;8.10;1.00;;;;;;5055425;28;20720;-75
2022/11/16 07:55:56;;;;;;;37.47;16.57;;;8.20;1.00;;;;;;5055427;28;20439;-73
2022/11/16 07:58:23;;;;;;;31.17;15.63;;;8.20;1.00;;;;;;5056417;28;20407;-74
2022/11/16 08:00:49;;;;;;;34.93;16.07;;;8.20;1.00;;;;;;5056349;28;20513;-74
2022/11/16 08:03:15;;;;;;;27.97;13.10;;;8.20;1.00;;;;;;5056267;28;20877;-74
2022/11/16 08:05:41;;;;;;;35.50;16.10;;;8.20;1.00;;;;;;5055004;28;20441;-74
2022/11/16 08:08:07;;;;;;;29.37;15.57;;;8.20;1.00;;;;;;5055311;28;20785;-75
2022/11/16 08:10:33;;;;;;;36.90;16.77;;;8.30;1.00;;;;;;5055845;28;20398;-78
2022/11/16 08:12:58;;;;;;;42.00;16.67;;;8.30;1.00;;;;;;5056193;28;20196;-75
2022/11/16 08:15:24;;;;;;;35.57;17.10;;;8.30;1.00;;;;;;5070337;28;20455;-76
2022/11/16 08:17:50;;;;;;;34.43;15.17;;;8.30;1.00;;;;;;5055816;28;20203;-74
2022/11/16 08:20:16;;;;;;;28.80;15.90;;;8.40;1.00;;;;;;5055785;28;20425;-76
2022/11/16 08:22:43;;;;;;;38.80;17.73;;;8.40;1.00;;;;;;5055646;28;20243;-74
2022/11/16 08:25:10;;;;;;;30.10;14.50;;;8.40;1.00;;;;;;5054810;28;20412;-77
2022/11/16 08:27:36;;;;;;;31.17;17.27;;;8.40;1.00;;;;;;5055181;28;20429;-75
2022/11/16 08:30:02;;;;;;;37.23;18.03;;;8.40;1.00;;;;;;5055586;28;20886;-76
2022/11/16 08:32:29;;;;;;;32.37;19.27;;;8.40;1.00;;;;;;5055508;28;20199;-76
2022/11/16 08:34:58;;;;;;;31.67;17.47;;;8.40;1.00;;;;;;5054661;28;20406;-75
2022/11/16 08:37:24;;;;;;;28.40;16.17;;;8.40;1.00;;;;;;5055350;28;20535;-76
2022/11/16 08:39:50;;;;;;;40.07;20.03;;;8.40;1.00;;;;;;5055476;28;20418;-73
2022/11/16 08:42:17;;;;;;;31.57;16.23;;;8.40;1.00;;;;;;5055256;28;20914;-75
2022/11/16 08:44:43;;;;;;;28.37;16.77;;;8.50;1.00;;;;;;5054115;28;20195;-77
2022/11/16 08:47:09;;;;;;;27.43;16.10;;;8.50;1.00;;;;;;5055139;28;20790;-75
2022/11/16 08:49:34;;;;;;;30.20;15.50;;;8.40;1.00;;;;;;5055460;28;20398;-73
2022/11/16 08:52:00;;;;;;;27.50;16.97;;;8.50;1.00;;;;;;5055262;28;20168;-76
2022/11/16 08:54:28;;;;;;;27.53;15.20;;;8.50;1.00;;;;;;5054277;28;20167;-74
2022/11/16 08:56:53;;;;;;;23.63;14.60;;;8.50;1.00;;;;;;5055094;28;20186;-74
2022/11/16 08:59:19;;;;;;;30.67;14.90;;;8.40;1.00;;;;;;5055290;28;20405;-74
2022/11/16 09:01:45;;;;;;;27.53;14.63;;;8.50;1.00;;;;;;5055025;28;20251;-76
2022/11/16 09:04:14;;;;;;;28.43;14.37;;;8.50;1.00;;;;;;5053556;28;20199;-76
2022/11/16 09:06:40;;;;;;;24.23;14.30;;;8.60;1.00;;;;;;5055251;28;20221;-77
2022/11/16 09:09:06;;;;;;;23.93;13.40;;;8.60;1.00;;;;;;5054937;28;20433;-77
2022/11/16 09:11:32;;;;;;;21.50;14.20;;;8.50;1.00;;;;;;5055095;28;20179;-75
2022/11/16 09:13:57;;;;;;;27.97;13.77;;;8.50;1.00;;;;;;5053954;28;20347;-77
2022/11/16 09:16:25;;;;;;;24.73;13.70;;;8.60;1.00;;;;;;5053396;28;20278;-76
2022/11/16 09:18:51;;;;;;;21.20;12.93;;;8.60;1.00;;;;;;5053098;28;20411;-74
2022/11/16 09:21:27;;;;;;;24.50;13.57;;;8.60;1.00;;;;;;5053842;28;20483;-77
2022/11/16 09:23:55;;;;;;;22.03;14.30;;;8.60;1.00;;;;;;5053853;28;20460;-74
2022/11/16 09:26:22;;;;;;;20.93;13.07;;;8.60;1.00;;;;;;5054585;28;20759;-73
2022/11/16 09:28:56;;;;;;;24.87;14.87;;;8.50;1.00;;;;;;5054618;28;20396;-74
2022/11/16 09:31:23;;;;;;;26.07;12.80;;;8.50;1.00;;;;;;5054517;28;20484;-77
2022/11/16 09:33:49;;;;;;;21.60;13.87;;;8.50;1.00;;;;;;5053928;28;20402;-73
2022/11/16 09:36:15;;;;;;;23.07;13.33;;;8.60;1.00;;;;;;5054327;28;20467;-77
2022/11/16 09:38:43;;;;;;;23.50;12.63;;;8.60;1.00;;;;;;5054348;28;20432;-77
2022/11/16 09:41:14;;;;;;;28.80;13.40;;;8.60;1.00;;;;;;5053419;28;20177;-76
2022/11/16 09:43:55;;;;;;;27.90;13.50;;;8.60;1.00;;;;;;5053253;28;20938;-74
2022/11/16 09:46:35;;;;;;;27.03;13.50;;;8.50;1.00;;;;;;5054282;28;20430;-77
2022/11/16 09:49:08;;;;;;;22.60;13.33;;;8.50;1.00;;;;;;5054240;28;20396;-75
2022/11/16 09:51:38;;;;;;;25.87;15.93;;;8.60;1.00;;;;;;5054180;28;20410;-74
2022/11/16 09:54:10;;;;;;;35.20;12.93;;;8.60;1.00;;;;;;5068801;28;20414;-74
2022/11/16 09:56:39;;;;;;;27.47;14.57;;;8.60;1.00;;;;;;5052621;28;20435;-74
2022/11/16 09:59:13;;;;;;;22.90;14.20;;;8.70;1.00;;;;;;5052429;28;20420;-74
2022/11/16 10:01:45;;;;;;;20.37;11.80;;;8.70;1.00;;;;;;5052679;28;20418;-74
2022/11/16 10:04:35;;;;;;;24.80;14.87;;;8.70;1.00;;;;;;5052865;28;20980;-74
2022/11/16 10:07:13;;;;;;;25.90;16.80;;;8.70;1.00;;;;;;5052524;28;20441;-74
2022/11/16 10:09:38;;;;;;;26.60;14.90;;;8.70;1.00;;;;;;5069082;28;20418;-76
2022/11/16 10:12:26;;;;;;;34.93;15.90;;;8.70;1.00;;;;;;5052535;28;20442;-74
2022/11/16 10:15:05;;;;;;;23.87;13.80;;;8.70;1.00;;;;;;5052402;28;20175;-76
2022/11/16 10:17:43;;;;;;;27.60;15.40;;;8.70;1.00;;;;;;5053476;28;20425;-76
2022/11/16 10:20:44;;;;;;;28.97;15.60;;;8.70;1.00;;;;;;5052341;28;20418;-73
2022/11/16 10:23:27;;;;;;;35.63;15.70;;;8.60;1.00;;;;;;5042546;28;20458;-77
2022/11/16 10:26:06;;;;;;;31.30;14.60;;;8.70;99.90;;;;;;5052826;28;20508;-73
2022/11/16 10:28:43;;;;;;;28.80;14.50;;;8.70;99.90;;;;;;5053456;28;20421;-73
2022/11/16 10:31:29;;;;;;;22.77;14.20;;;8.60;99.90;;;;;;5052402;28;20420;-74
2022/11/16 10:33:57;;;;;;;25.87;14.10;;;8.60;99.90;;;;;;5052304;28;21140;-74
2022/11/16 10:36:28;;;;;;;30.43;14.47;;;8.60;99.90;;;;;;5052320;28;20429;-73
2022/11/16 10:38:59;;;;;;;28.90;15.43;;;8.70;99.90;;;;;;5053202;28;20413;-74
2022/11/16 10:41:36;;;;;;;29.87;16.23;;;8.70;99.90;;;;;;5053209;28;20411;-77
2022/11/16 10:44:08;;;;;;;31.13;17.30;;;8.70;99.90;;;;;;5052205;28;20457;-72
2022/11/16 10:46:43;;;;;;;27.03;14.53;;;8.70;99.90;;;;;;5053209;28;20503;-73
2022/11/16 10:49:21;;;;;;;24.80;14.53;;;8.70;99.90;;;;;;5053302;28;20416;-75
2022/11/16 10:51:47;;;;;;;28.43;14.93;;;8.80;99.90;;;;;;5052855;28;20433;-74
2022/11/16 10:54:17;;;;;;;26.93;14.70;;;8.80;99.90;;;;;;5052253;28;20952;-77
2022/11/16 10:56:46;;;;;;;22.30;14.43;;;8.80;99.90;;;;;;5053806;28;20564;-74
2022/11/16 10:59:14;;;;;;;25.83;14.00;;;8.70;99.90;;;;;;5053344;28;20899;-74
2022/11/16 11:01:57;;;;;;;20.80;12.97;;;8.80;99.90;;;;;;5051921;28;20415;-75
2022/11/16 11:04:28;;;;;;;25.43;16.70;;;8.80;99.90;;;;;;5052164;28;20480;-77
2022/11/16 11:06:57;;;;;;;34.30;16.20;;;8.80;99.90;;;;;;5051729;28;20429;-74
2022/11/16 11:09:31;;;;;;;26.53;15.60;;;8.70;99.90;;;;;;5052510;28;20402;-77
2022/11/16 11:14:59;;;;;;;27.53;14.97;;;8.70;99.90;;;;;;5052082;28;20401;-74
2022/11/16 11:17:25;;;;;;;35.60;15.63;;;8.70;99.90;;;;;;5052964;28;20424;-76
2022/11/16 11:20:12;;;;;;;26.83;16.63;;;8.70;99.90;;;;;;5068550;28;20896;-77
2022/11/16 11:22:58;;;;;;;22.60;14.43;;;8.80;99.90;;;;;;5053293;28;20555;-73
2022/11/16 11:25:32;;;;;;;25.43;15.30;;;8.70;99.90;;;;;;5050890;28;20424;-74
2022/11/16 11:28:17;;;;;;;27.93;15.23;;;8.70;99.90;;;;;;5052360;28;20491;-77
2022/11/16 11:30:56;;;;;;;26.00;15.37;;;8.60;99.90;;;;;;5051881;28;20407;-76
2022/11/16 11:33:24;;;;;;;24.53;13.10;;;8.60;99.90;;;;;;5052736;28;20437;-77
2022/11/16 11:36:01;;;;;;;29.70;15.43;;;8.60;99.90;;;;;;5051907;28;20433;-74
2022/11/16 11:38:27;;;;;;;24.00;16.10;;;8.70;99.90;;;;;;5052804;28;20407;-77
2022/11/16 11:40:59;;;;;;;30.63;14.97;;;8.60;99.90;;;;;;5052910;28;20411;-77
2022/11/16 11:43:25;;;;;;;23.53;15.43;;;8.60;99.90;;;;;;5054299;28;20857;-74
2022/11/16 11:46:12;;;;;;;26.57;15.23;;;8.60;99.90;;;;;;5055669;28;20424;-75
2022/11/16 11:49:17;;;;;;;23.80;15.17;;;8.50;99.90;;;;;;5056274;28;20897;-77
2022/11/16 11:51:45;;;;;;;24.80;13.83;;;8.50;99.90;;;;;;5054676;28;20414;-74
2022/11/16 11:54:23;;;;;;;30.43;15.40;;;8.50;99.90;;;;;;5055238;28;20890;-77
2022/11/16 11:56:49;;;;;;;29.73;16.57;;;8.50;99.90;;;;;;5056327;28;20849;-76
2022/11/16 11:59:20;;;;;;;22.63;13.53;;;8.50;99.90;;;;;;5056418;28;20497;-74
2022/11/16 12:01:54;;;;;;;23.50;13.77;;;8.50;99.90;;;;;;5056122;28;20408;-76
2022/11/16 12:04:35;;;;;;;20.00;14.03;;;8.50;99.90;;;;;;5069997;28;20488;-76
2022/11/16 12:07:26;;;;;;;18.40;12.83;;;8.50;99.90;;;;;;5056021;28;20500;-76
2022/11/16 12:10:04;;;;;;;20.13;13.50;;;8.50;99.90;;;;;;5056058;28;20407;-74
2022/11/16 12:12:33;;;;;;;24.00;13.13;;;8.40;99.90;;;;;;5055944;28;20444;-73
2022/11/16 12:15:24;;;;;;;25.03;13.70;;;8.50;99.90;;;;;;5053772;28;20415;-73
2022/11/16 12:18:08;;;;;;;19.63;11.20;;;8.40;99.90;;;;;;5054880;28;20414;-76
2022/11/16 12:20:55;;;;;;;22.03;13.03;;;8.40;99.90;;;;;;5054078;28;20418;-74
2022/11/16 12:23:27;;;;;;;26.97;14.07;;;8.40;99.90;;;;;;5054380;28;20451;-77
2022/11/16 12:25:58;;;;;;;18.37;12.40;;;8.40;99.90;;;;;;5055053;28;20427;-73
2022/11/16 12:29:02;;;;;;;19.57;12.27;;;8.40;99.90;;;;;;5055563;28;20890;-77
2022/11/16 12:31:49;;;;;;;20.20;12.00;;;8.30;99.90;;;;;;5055734;28;20397;-76
2022/11/16 12:35:09;;;;;;;15.00;11.77;;;8.30;99.90;;;;;;5054532;28;20413;-77
2022/11/16 12:37:39;;;;;;;16.93;10.83;;;8.30;99.90;;;;;;4993559;28;20516;-76
2022/11/16 12:40:27;;;;;;;16.50;12.10;;;8.30;99.90;;;;;;5044852;28;20496;-76
2022/11/16 12:42:53;;;;;;;19.17;11.47;;;8.30;99.90;;;;;;5055342;28;20461;-76
2022/11/16 12:45:26;;;;;;;12.63;10.13;;;8.30;99.90;;;;;;5054440;28;20402;-76
2022/11/16 12:48:10;;;;;;;12.30;9.83;;;8.40;99.90;;;;;;5055546;28;20581;-74
2022/11/16 12:50:57;;;;;;;16.63;10.83;;;8.30;99.90;;;;;;5055426;28;20406;-76
2022/11/16 12:53:40;;;;;;;15.80;9.90;;;8.40;99.90;;;;;;5053929;28;20517;-74
2022/11/16 12:56:06;;;;;;;14.87;9.93;;;8.40;99.90;;;;;;5054666;28;20467;-73
2022/11/16 12:58:44;;;;;;;14.90;10.73;;;8.50;99.90;;;;;;5053395;28;20424;-74
2022/11/16 13:01:27;;;;;;;13.30;9.67;;;8.50;99.90;;;;;;5055224;28;20175;-76
2022/11/16 13:03:57;;;;;;;16.00;9.30;;;8.50;99.90;;;;;;5054070;28;20486;-77
2022/11/16 13:06:31;;;;;;;17.90;10.57;;;8.50;99.90;;;;;;5055011;28;20417;-74
2022/11/16 13:08:57;;;;;;;14.07;9.73;;;8.50;99.90;;;;;;5055041;28;20411;-74
2022/11/16 13:11:31;;;;;;;17.27;8.93;;;8.60;99.90;;;;;;5055082;28;20488;-72
2022/11/16 13:14:04;;;;;;;14.50;10.60;;;8.50;99.90;;;;;;5054210;28;20175;-74
2022/11/16 13:16:30;;;;;;;13.90;9.33;;;8.50;99.90;;;;;;5054362;28;20444;-78
2022/11/16 13:18:57;;;;;;;13.67;9.87;;;8.40;99.90;;;;;;5054679;28;20410;-77
2022/11/16 13:21:34;;;;;;;13.43;9.40;;;8.40;99.90;;;;;;5053729;28;20418;-77
2022/11/16 13:24:12;;;;;;;10.77;8.80;;;8.30;99.90;;;;;;5053917;28;20457;-77
2022/11/16 13:27:00;;;;;;;12.83;9.43;;;8.20;99.90;;;;;;5053503;28;20426;-74
2022/11/16 13:29:58;;;;;;;13.13;9.30;;;8.30;99.90;;;;;;5070008;28;20813;-73
2022/11/16 13:32:51;;;;;;;12.73;10.23;;;8.20;99.90;;;;;;5054355;28;20399;-77
2022/11/16 13:35:17;;;;;;;16.00;9.60;;;8.20;99.90;;;;;;5053550;28;20492;-77
2022/11/16 13:37:45;;;;;;;14.90;8.80;;;8.20;99.90;;;;;;5054300;28;20423;-76
2022/11/16 13:40:19;;;;;;;12.50;9.90;;;8.20;99.90;;;;;;5054466;28;20759;-73
2022/11/16 13:43:09;;;;;;;16.83;10.60;;;8.20;99.90;;;;;;5054171;28;20452;-75
2022/11/16 13:45:39;;;;;;;22.60;10.60;;;8.20;99.90;;;;;;5052189;28;20456;-77
2022/11/16 13:48:19;;;;;;;10.13;8.67;;;8.20;99.90;;;;;;5052927;28;20421;-76
2022/11/16 13:50:54;;;;;;;13.70;10.40;;;8.20;99.90;;;;;;5053730;28;20481;-74
2022/11/16 13:53:29;;;;;;;12.47;10.33;;;8.20;99.90;;;;;;5053857;28;20411;-78
2022/11/16 13:56:02;;;;;;;10.87;9.73;;;8.20;99.90;;;;;;5053626;28;20580;-73